ATMO2: Muddy Boggy Creek at Atoka

                                SHEF ID:       ATMO2     Muddy Boggy Creek at Atoka, OK
STATION TYPE:

PRECIP STAGE RIV-FLOW VOLTAGE BAT-LOAD
in ft cfs volt volt
Ccp-Rev Ccp-Rev Ccp-Rev Ccp-Rev Ccp-Rev
(America/Chicago)
04/30 00:00 0.00 16.20 206 12.74 12.50
04/30 01:00 0.00 16.16 200 12.73 12.50
04/30 02:00 0.00 16.12 193 12.73 12.49
04/30 03:00 0.00 16.08 187 12.72 12.48
04/30 04:00 0.00 16.05 183 12.72 12.47
04/30 05:00 0.00 16.01 177 12.71 12.47
04/30 06:00 0.00 15.98 172 12.71 12.47
04/30 07:00 0.00 15.95 168 12.73 12.47
04/30 08:00 0.00 15.92 163 12.87 12.60
04/30 09:00 0.00 15.89 158 12.92 12.63
04/30 10:00 0.00 15.87 155 12.94 12.65
04/30 11:00 0.00 15.84 151 12.96 12.66
04/30 12:00 0.00 15.81 146 12.97 12.67
04/30 13:00 0.00 15.79 143 12.99 12.67
04/30 14:00 0.00 15.76 139 13.06 12.69
04/30 15:00 0.00 15.74 136 13.20 12.67
04/30 16:00 0.00 15.72 133 13.16 12.66
04/30 17:00 0.00 15.70 130 13.08 12.66
04/30 18:00 0.00 15.68 127 13.06 12.65
04/30 19:00 0.00 15.66 124 12.93 12.65
04/30 20:00 0.00 15.65 123 12.82 12.59
04/30 21:00 0.00 15.63 121 12.78 12.55
04/30 22:00 0.00 15.62 120 12.77 12.53
04/30 23:00 0.00 15.60 118 12.75 12.51
Data processed at Fri 01May2026 04:54 GMT

NOTICE: If you are parsing this page

Please convert to using our Data API. Starting early 2026 we will be migrating to: https://water.usace.army.mil with modern pages rendered in JavaScript. When this migration completes you will no longer be able to scrape this page! CWMSDataAPI (CDA)

Timeseries IDs (TSIDs)

TSIDs used from left to right in the data table
ATMB.Precip-Inc.Total.1Hour.1Hour.Ccp-Rev
ATMB.Stage.Inst.1Hour.0.Ccp-Rev
ATMB.Flow.Inst.1Hour.0.Ccp-Rev
ATMB.Volt-Battery.Inst.1Hour.0.Ccp-Rev
ATMB.Volt-Battery Load.Inst.1Hour.0.Ccp-Rev

                            

All information presented herein is the property of the government of the United States of America and may be revised or deleted at any time without prior notice. Dissemination of this information without the expressed written consent of the Public Affairs Office, Tulsa District U.S. Army Corps of Engineers is strictly prohibited. These data are gathered electronically and, as presented, have NOT undergone any form of quality control. These data are NOT guaranteed to be valid or correct.